createdAt,value
2019-05-19T00:00:14.371Z,111.05
2019-05-19T00:05:19.607Z,115.60
2019-05-19T00:10:24.162Z,117.28
2019-05-19T00:15:28.861Z,119.33
2019-05-19T00:20:35.032Z,111.22
2019-05-19T00:25:39.885Z,116.80
2019-05-19T00:30:46.094Z,119.62
2019-05-19T00:35:50.741Z,114.85
2019-05-19T00:40:58.803Z,127.17
2019-05-19T00:46:07.144Z,125.87
2019-05-19T00:51:17.470Z,130.15
2019-05-19T00:56:22.494Z,130.93
2019-05-19T01:01:31.441Z,131.05
2019-05-19T01:06:37.363Z,130.27
2019-05-19T01:11:43.689Z,133.40
2019-05-19T01:16:49.691Z,137.22
2019-05-19T01:21:54.670Z,139.47
2019-05-19T01:27:03.394Z,133.90
2019-05-19T01:32:07.989Z,133.32
2019-05-19T01:37:12.780Z,140.35
2019-05-19T01:42:17.344Z,138.90
2019-05-19T01:47:22.054Z,140.57
2019-05-19T01:52:26.651Z,141.22
2019-05-19T01:57:32.863Z,143.70
2019-05-19T02:02:42.024Z,138.12
2019-05-19T02:07:47.642Z,139.05
2019-05-19T02:12:53.777Z,136.75
2019-05-19T02:18:00.399Z,137.05
2019-05-19T02:23:06.205Z,137.82
2019-05-19T02:28:11.600Z,135.18
2019-05-19T02:33:17.855Z,147.70
2019-05-19T02:38:25.833Z,144.40
2019-05-19T02:43:31.109Z,139.57
2019-05-19T02:48:38.976Z,144.10
2019-05-19T02:53:46.964Z,146.22
2019-05-19T02:58:52.772Z,146.05
2019-05-19T03:03:59.088Z,147.78
2019-05-19T03:09:05.163Z,145.68
2019-05-19T03:14:10.326Z,158.65
2019-05-19T03:19:17.625Z,151.27
2019-05-19T03:24:22.281Z,158.85
2019-05-19T03:29:29.984Z,156.40
2019-05-19T03:34:36.186Z,151.90
2019-05-19T03:39:42.291Z,149.57
2019-05-19T03:44:46.996Z,157.90
2019-05-19T03:49:51.652Z,154.53
2019-05-19T03:54:57.192Z,163.62
2019-05-19T04:00:01.746Z,163.47
2019-05-19T04:05:10.208Z,164.43
2019-05-19T04:10:16.448Z,160.75
2019-05-19T04:15:21.501Z,156.47
2019-05-19T04:20:29.138Z,169.00
2019-05-19T04:25:33.780Z,165.35
2019-05-19T04:30:38.425Z,169.85
2019-05-19T04:35:43.493Z,171.47
2019-05-19T04:40:49.896Z,181.25
2019-05-19T04:45:54.488Z,168.68
2019-05-19T04:51:01.498Z,173.32
2019-05-19T04:56:08.637Z,169.68
2019-05-19T05:01:15.360Z,172.87
2019-05-19T05:06:20.061Z,174.62
2019-05-19T05:11:24.978Z,164.13
2019-05-19T05:16:31.769Z,169.87
2019-05-19T05:21:36.309Z,163.62
2019-05-19T05:26:40.740Z,164.18
2019-05-19T05:31:45.216Z,165.45
2019-05-19T05:36:49.621Z,175.30
2019-05-19T05:41:54.045Z,165.90
2019-05-19T05:46:58.438Z,161.77
2019-05-19T05:52:02.879Z,176.50
2019-05-19T05:57:07.331Z,174.80
2019-05-19T06:02:12.398Z,161.80
2019-05-19T06:07:16.823Z,167.43
2019-05-19T06:12:21.307Z,170.02
2019-05-19T06:17:25.718Z,174.75
2019-05-19T06:22:30.092Z,163.85
2019-05-19T06:27:34.648Z,164.88
2019-05-19T06:32:45.032Z,172.57
2019-05-19T06:37:49.563Z,164.70
2019-05-19T06:42:54.020Z,161.75
2019-05-19T06:47:58.409Z,157.18
2019-05-19T06:53:13.527Z,154.85
2019-05-19T06:58:08.956Z,160.03
2019-05-19T07:03:14.461Z,160.00
2019-05-19T07:08:18.923Z,154.03
2019-05-19T07:13:23.293Z,154.12
2019-05-19T07:18:27.887Z,154.12
2019-05-19T07:23:35.435Z,147.25
2019-05-19T07:28:40.122Z,142.98
2019-05-19T07:33:45.120Z,146.93
2019-05-19T07:38:53.389Z,142.50
2019-05-19T07:43:58.061Z,135.60
2019-05-19T07:49:09.111Z,135.78
2019-05-19T07:54:15.214Z,129.15
2019-05-19T07:59:19.674Z,125.02
2019-05-19T08:04:24.137Z,125.58
2019-05-19T08:09:28.807Z,120.28
2019-05-19T08:14:33.357Z,123.35
2019-05-19T08:19:37.773Z,116.53
2019-05-19T08:24:43.867Z,121.57
2019-05-19T08:29:48.265Z,118.45
2019-05-19T08:34:52.909Z,120.55
2019-05-19T08:39:57.390Z,115.77
2019-05-19T08:45:01.896Z,120.60
2019-05-19T08:50:09.678Z,109.75
2019-05-19T08:55:14.407Z,107.60
2019-05-19T09:00:19.439Z,105.00
2019-05-19T09:05:23.897Z,100.00
2019-05-19T09:10:28.335Z,101.72
2019-05-19T09:15:32.857Z,101.60
2019-05-19T09:20:56.574Z,100.27
2019-05-19T09:26:01.009Z,95.87
2019-05-19T09:31:05.468Z,95.45
2019-05-19T09:36:09.896Z,92.80
2019-05-19T09:41:14.310Z,92.67
2019-05-19T09:46:18.727Z,94.47
2019-05-19T09:51:24.643Z,96.25
2019-05-19T09:56:29.060Z,89.70
2019-05-19T10:01:33.469Z,95.00
2019-05-19T10:06:37.874Z,89.50
2019-05-19T10:12:07.080Z,89.90
2019-05-19T10:17:11.552Z,87.37
2019-05-19T10:22:17.580Z,81.02
2019-05-19T10:27:22.036Z,80.17
2019-05-19T10:32:26.460Z,76.53
2019-05-19T10:37:31.630Z,73.52
2019-05-19T10:42:36.360Z,69.37
2019-05-19T10:47:42.263Z,66.62
2019-05-19T10:52:46.862Z,68.02
2019-05-19T10:57:51.246Z,62.58
2019-05-19T11:02:55.702Z,62.03
2019-05-19T11:08:00.056Z,56.50
2019-05-19T11:13:05.315Z,61.73
2019-05-19T11:18:09.705Z,59.73
2019-05-19T11:23:14.188Z,57.27
2019-05-19T11:28:21.591Z,57.80
2019-05-19T11:33:26.107Z,56.10
2019-05-19T11:38:30.483Z,55.58
2019-05-19T11:43:34.944Z,56.85
2019-05-19T11:48:39.400Z,57.60
2019-05-19T11:53:43.838Z,53.28
2019-05-19T11:58:48.328Z,48.75
2019-05-19T12:03:55.363Z,53.87
2019-05-19T12:08:58.886Z,52.08
2019-05-19T12:14:03.352Z,49.35
2019-05-19T12:19:07.750Z,48.30
2019-05-19T12:24:12.221Z,47.45
2019-05-19T12:29:18.251Z,45.43
2019-05-19T12:34:22.661Z,47.43
2019-05-19T12:39:27.165Z,46.75
2019-05-19T12:44:31.573Z,47.08
2019-05-19T12:49:39.053Z,47.05
2019-05-19T12:54:43.501Z,39.30
2019-05-19T12:59:47.957Z,42.93
2019-05-19T13:05:05.016Z,41.33
2019-05-19T13:10:00.198Z,39.88
2019-05-19T13:15:08.992Z,37.60
2019-05-19T13:20:14.014Z,42.73
2019-05-19T13:25:18.762Z,45.55
2019-05-19T13:30:23.127Z,41.90
2019-05-19T13:35:29.202Z,50.75
2019-05-19T13:40:33.605Z,45.28
2019-05-19T13:45:38.085Z,46.98
2019-05-19T13:50:42.475Z,50.67
2019-05-19T13:55:46.881Z,50.73
2019-05-19T14:00:51.385Z,47.85
2019-05-19T14:05:55.856Z,44.93
2019-05-19T14:11:00.321Z,46.42
2019-05-19T14:16:04.720Z,45.15
2019-05-19T14:21:09.203Z,49.93
2019-05-19T14:26:13.649Z,49.08
2019-05-19T14:31:18.406Z,53.42
2019-05-19T14:36:22.791Z,54.67
2019-05-19T14:41:33.631Z,55.65
2019-05-19T14:46:33.821Z,52.30
2019-05-19T14:51:38.300Z,57.15
2019-05-19T14:56:43.844Z,56.40
2019-05-19T15:01:48.358Z,60.85
2019-05-19T15:06:52.833Z,64.58
2019-05-19T15:11:57.220Z,62.85
2019-05-19T15:17:01.624Z,68.65
2019-05-19T15:22:06.155Z,72.20
2019-05-19T15:27:17.707Z,63.73
2019-05-19T15:32:22.094Z,76.40
2019-05-19T15:37:26.497Z,71.60
2019-05-19T15:42:30.873Z,77.40
2019-05-19T15:47:35.271Z,75.25
2019-05-19T15:52:39.689Z,76.02
2019-05-19T15:57:45.788Z,77.92
2019-05-19T16:02:50.439Z,74.92
2019-05-19T16:07:55.128Z,77.78
2019-05-19T16:12:59.527Z,84.52
2019-05-19T16:18:03.922Z,82.47
2019-05-19T16:23:08.327Z,82.35
2019-05-19T16:28:12.748Z,88.52
2019-05-19T16:33:17.240Z,85.87
2019-05-19T16:38:21.722Z,83.78
2019-05-19T16:43:27.743Z,81.97
2019-05-19T16:48:32.136Z,83.47
2019-05-19T16:53:36.641Z,85.95
2019-05-19T16:58:45.488Z,84.92
2019-05-19T17:03:47.206Z,83.30
2019-05-19T17:08:51.626Z,84.87
2019-05-19T17:13:56.057Z,82.82
2019-05-19T17:19:00.425Z,80.70
2019-05-19T17:24:06.009Z,76.25
2019-05-19T17:29:10.399Z,75.17
2019-05-19T17:34:14.841Z,83.17
2019-05-19T17:39:19.352Z,78.92
2019-05-19T17:44:23.946Z,78.90
2019-05-19T17:49:28.339Z,81.37
2019-05-19T17:54:32.878Z,80.28
2019-05-19T17:59:39.592Z,84.22
2019-05-19T18:04:44.070Z,78.67
2019-05-19T18:09:48.569Z,80.03
2019-05-19T18:14:53.080Z,81.05
2019-05-19T18:19:57.525Z,79.65
2019-05-19T18:25:02.128Z,84.50
2019-05-19T18:30:07.724Z,87.60
2019-05-19T18:35:14.134Z,82.50
2019-05-19T18:40:18.778Z,88.17
2019-05-19T18:45:23.262Z,88.60
2019-05-19T18:50:49.170Z,112.30
2019-05-19T18:56:30.209Z,93.15
2019-05-19T19:06:32.358Z,101.45
2019-05-19T19:11:37.613Z,89.35
2019-05-19T19:17:01.548Z,95.03
2019-05-19T19:22:22.303Z,95.32
2019-05-19T19:33:08.688Z,100.33
2019-05-19T19:38:38.136Z,107.58
2019-05-19T19:43:46.474Z,108.55
2019-05-19T19:49:28.914Z,104.50
2019-05-19T19:59:37.556Z,122.75
2019-05-19T20:05:01.526Z,117.80
2019-05-19T20:10:11.004Z,116.08
2019-05-19T20:15:18.521Z,121.80
2019-05-19T20:20:25.000Z,121.40
2019-05-19T20:25:31.244Z,117.70
2019-05-19T20:30:36.934Z,118.82
2019-05-19T20:35:43.268Z,125.33
2019-05-19T20:40:48.019Z,124.92
2019-05-19T20:45:56.141Z,127.90
2019-05-19T20:51:04.907Z,124.82
2019-05-19T20:56:09.596Z,123.65
2019-05-19T21:01:17.469Z,129.38
2019-05-19T21:06:23.092Z,128.80
2019-05-19T21:11:36.024Z,134.57
2019-05-19T21:16:40.811Z,129.60
2019-05-19T21:21:48.387Z,138.62
2019-05-19T21:26:53.858Z,136.50
2019-05-19T21:32:03.311Z,133.10
2019-05-19T21:37:08.038Z,128.35
2019-05-19T21:42:13.823Z,118.47
2019-05-19T21:47:19.942Z,115.12
2019-05-19T21:52:24.526Z,101.62
2019-05-19T21:57:29.324Z,114.88
2019-05-19T22:02:35.861Z,117.45
2019-05-19T22:07:58.997Z,119.77
2019-05-19T22:13:03.639Z,124.07
2019-05-19T22:18:08.380Z,122.75
2019-05-19T22:23:14.041Z,107.10
2019-05-19T22:28:18.675Z,103.55
2019-05-19T22:33:23.662Z,103.30
2019-05-19T22:38:29.919Z,133.30
2019-05-19T22:43:37.208Z,121.02
2019-05-19T22:48:44.778Z,115.85
2019-05-19T22:53:49.613Z,116.50
2019-05-19T22:58:54.256Z,104.95
2019-05-19T23:04:01.002Z,117.65
2019-05-19T23:09:09.486Z,109.80
2019-05-19T23:14:14.443Z,99.83
2019-05-19T23:19:20.804Z,105.12
2019-05-19T23:24:34.405Z,104.75
2019-05-19T23:29:39.387Z,102.78
2019-05-19T23:34:44.281Z,101.00
2019-05-19T23:39:54.480Z,102.90
2019-05-19T23:44:59.088Z,106.12
2019-05-19T23:50:07.593Z,114.42
2019-05-19T23:55:14.012Z,108.80
